SYY weather

Stornoway Airport
Stornoway, Scotland, United Kingdom

Public forecast

Using degrees Celsius for public forecast. Weather courtesy of forecast.io.

Current aviation weather report (METAR) for Stornoway Airport

Retrieved 2020/01/24 19:20 UTC (10 minutes ago):

EGPO 241920Z 20015KT 9999 -DZ FEW008 SCT016 BKN036 08/07 Q1012

Aviation forecast (TAF) for Stornoway Airport

Forecast is more than 12 hours old.

Retrieved 2017/03/05 03:00 UTC (3 years ago):

TAF TAF EGPO 050556Z 0503/0515 CNL